Alexander, Illinois
Current Conditions -  °F | °C
As of 5:55 PM on Friday 19 Dec 2014 (Local Time) from KIJX Reporting Station
Overcast Overcast  
Wind Chill: 29°   Ceiling: 5000
Heat Index: 34°   Visibility: 10mi
Dew Point: 29°   Wind: 5mph
Humidity: 82%   Direction: 60°ENE
Pressure: 30.28"   Gusts: NA
Location:  39.72°N, 90.04°W
Report Text: KIJX 192355Z AUTO 06004KT 10SM OVC050 01/M02 A3028 RMK AO2 T00091019 10021 20009
Loading
Personal Weather Stations






























Interactive Weather Map New forecast layout! Learn more

10-Day Weather Forecast

Advertisements
Track Severe Weather on mobile